Flight Track Log - Related Links

Times and Time Zones

All times are in EDT time to prevent confusion due to time zone crossing. See the KAP5 flight status page for this flight to view local times or setup timezone preferences in your user account.

Time Position Orientation Groundspeed Altitude Reporting Facility
EDT Latitude Longitude Course Direction KTS MPH feet Rate Location/Type
Sat 05:14:59 PM 42.3667 -70.9833 114° Southeast 119 137 500  Level KA90
Sat 05:16:05 PM 42.3500 -70.9333 114° Southeast 107 123 1,200 619 Climbing KA90
Sat 05:17:05 PM 42.3333 -70.9000 124° Southeast 114 131 1,800 600 Climbing KA90
Sat 05:18:05 PM 42.3000 -70.8833 160° South 130 150 2,400 624 Climbing KA90
Sat 05:19:10 PM 42.2656 -70.8708 165° South 128 147 3,100 619 Climbing Boston Center
Sat 05:20:11 PM 42.2300 -70.8600 167° South 133 153 3,700 689 Climbing Boston Center
Sat 05:21:12 PM 42.1953 -70.8486 166° South 130 150 4,500 595 Climbing Boston Center
Sat 05:22:12 PM 42.1578 -70.8400 170° South 128 147 4,900 246 Climbing Boston Center
Sat 05:23:14 PM 42.1161 -70.8272 167° South 149 171 5,000  Climbing Boston Center
Sat 05:24:18 PM 42.0672 -70.8147 169° South 169 194 4,900  Descending Boston Center
Sat 05:25:19 PM 42.0194 -70.8036 170° South 174 200 5,000 49 Climbing Boston Center
Sat 05:26:20 PM 41.9731 -70.7906 168° South 172 198 5,000  Level Boston Center
Sat 05:27:20 PM 41.9278 -70.7719 163° South 172 198 5,000 -50 Level Boston Center
Sat 05:28:21 PM 41.8714 -70.7536 166° South 174 200 4,900 -194 Descending Boston Center
Sat 05:29:24 PM 41.8219 -70.7397 168° South 181 208 4,600 -290 Descending Boston Center
Sat 05:30:25 PM 41.7717 -70.7253 168° South 186 214 4,300 -393 Descending Boston Center
Sat 05:31:26 PM 41.7183 -70.7108 169° South 194 223 3,800 -446 Descending Boston Center
Sat 05:32:26 PM 41.6653 -70.6981 170° South 196 226 3,400 -393 Descending Boston Center
Sat 05:33:28 PM 41.6133 -70.6839 168° South 192 221 3,000 -384 Descending Boston Center
Sat 05:34:31 PM 41.5619 -70.6711 169° South 190 219 2,600 -435 Descending Boston Center
Sat 05:35:32 PM 41.5017 -70.6514 166° South 189 217 2,100 -446 Descending Boston Center
Sat 05:36:32 PM 41.4547 -70.6322 163° South 180 207 1,700 -339 Descending Boston Center
Sat 05:37:36 PM 41.4128 -70.6381 186° South 158 182 1,400 -336 Descending Boston Center
Sat 05:38:37 PM 41.3747 -70.6667 209° Southwest 148 170 1,000 -496 Descending Boston Center
Sat 05:39:37 PM 41.3761 -70.6331 87° East 118 136 400 -600 Descending Boston Center
Sat 05:41:00 PM 41.3833 -70.6000 163° South  Level FlightAware Approximate

Login

Don't have an account? Register now (free) for customized features, flight alerts, and more!